createdAt,value
2019-05-07T00:00:12.882Z,74.6
2019-05-07T00:15:12.880Z,75.1
2019-05-07T00:30:12.926Z,75.4
2019-05-07T00:45:23.812Z,76.4
2019-05-07T01:00:13.381Z,74.7
2019-05-07T01:15:04.677Z,74.6
2019-05-07T01:30:04.540Z,75.4
2019-05-07T01:45:04.611Z,75.4
2019-05-07T02:00:04.632Z,74.8
2019-05-07T02:15:04.709Z,75.2
2019-05-07T02:30:05.094Z,76
2019-05-07T02:45:05.273Z,75.1
2019-05-07T03:00:05.245Z,73.7
2019-05-07T03:15:05.154Z,72.6
2019-05-07T03:30:05.029Z,70.8
2019-05-07T03:45:04.919Z,70.6
2019-05-07T04:00:04.948Z,70.7
2019-05-07T04:15:05.046Z,69.7
2019-05-07T04:30:05.043Z,70.4
2019-05-07T04:45:05.052Z,71.3
2019-05-07T05:00:05.400Z,71.2
2019-05-07T05:15:05.369Z,69.6
2019-05-07T05:30:05.420Z,70.8
2019-05-07T05:45:06.417Z,68.5
2019-05-07T06:00:06.412Z,67.6
2019-05-07T06:15:06.449Z,67.1
2019-05-07T06:30:06.460Z,68
2019-05-07T06:45:07.915Z,67
2019-05-07T07:00:08.013Z,60.5
2019-05-07T07:15:08.055Z,58.9
2019-05-07T07:30:08.126Z,58.2
2019-05-07T07:45:08.149Z,56.9
2019-05-07T08:00:12.179Z,54
2019-05-07T08:15:24.843Z,56.2
2019-05-07T08:30:12.103Z,51.8
2019-05-07T08:45:03.930Z,49.6
2019-05-07T09:00:06.504Z,50.7
2019-05-07T09:15:07.137Z,45.2
2019-05-07T09:30:13.043Z,44.8
2019-05-07T09:45:03.325Z,42.8
2019-05-07T10:00:07.622Z,38.3
2019-05-07T10:15:08.025Z,43.8
2019-05-07T10:30:08.450Z,40.2
2019-05-07T10:45:10.517Z,44.1
2019-05-07T11:00:12.671Z,44.7
2019-05-07T11:15:08.125Z,42.5
2019-05-07T11:30:12.154Z,43
2019-05-07T11:45:12.471Z,39.5
2019-05-07T12:00:10.233Z,38.5
2019-05-07T12:15:12.787Z,39.6
2019-05-07T12:30:12.456Z,42.9
2019-05-07T12:45:03.233Z,43.4
2019-05-07T13:00:04.385Z,40.3
2019-05-07T13:15:04.446Z,41.9
2019-05-07T13:30:04.523Z,37.1
2019-05-07T13:45:05.010Z,40
2019-05-07T14:00:05.437Z,42.2
2019-05-07T14:15:05.405Z,35.5
2019-05-07T14:30:06.833Z,37.1
2019-05-07T14:45:08.004Z,36.2
2019-05-07T15:00:08.980Z,37.3
2019-05-07T15:15:08.639Z,37.5
2019-05-07T15:30:11.735Z,36.2
2019-05-07T15:45:06.962Z,38.6
2019-05-07T16:00:11.931Z,37.6
2019-05-07T16:15:14.093Z,38.1
2019-05-07T16:30:02.688Z,37.2
2019-05-07T16:45:03.526Z,36.8
2019-05-07T17:00:03.567Z,38.7
2019-05-07T17:15:04.113Z,38.7
2019-05-07T17:30:04.459Z,39.5
2019-05-07T17:45:06.315Z,37.3
2019-05-07T18:00:07.421Z,42
2019-05-07T18:15:08.656Z,47.4
2019-05-07T18:30:09.230Z,53.1
2019-05-07T18:45:12.697Z,54.7
2019-05-07T19:00:06.379Z,56.6
2019-05-07T19:15:06.358Z,57.9
2019-05-07T19:30:06.378Z,61.3
2019-05-07T19:45:07.067Z,61.4
2019-05-07T20:00:06.751Z,60.9
2019-05-07T20:15:07.736Z,60.7
2019-05-07T20:30:08.340Z,61.4
2019-05-07T20:45:08.453Z,62.2
2019-05-07T21:00:08.664Z,62.1
2019-05-07T21:15:12.760Z,63.4
2019-05-07T21:30:13.374Z,62.5
2019-05-07T21:45:12.465Z,62.8
2019-05-07T22:00:13.032Z,63.1
2019-05-07T22:15:04.797Z,63.3
2019-05-07T22:30:12.809Z,63.5
2019-05-07T22:45:12.628Z,62.4
2019-05-07T23:00:12.637Z,62.8
2019-05-07T23:15:06.772Z,63.5
2019-05-07T23:30:06.404Z,65.9
2019-05-07T23:45:06.658Z,65.4
